Woodville, West Virginia
Current Conditions -  °F | °C
As of 3:38 PM on Friday 28 Nov 2014 (Local Time) from KCRW Reporting Station
Broken Clouds Broken Clouds  
Wind Chill: 32°   Ceiling: 11000
Heat Index: 32°   Visibility: 10mi
Dew Point: 20°   Wind: 0mph
Humidity: 61%   Direction: NA
Pressure: 30.28"   Gusts: NA
Location:  38.16°N, 81.89°W
Report Text: KCRW 282038Z 00000KT 10SM SCT027 BKN110 BKN180 00/M07 A3028 RMK AO2 T00001067
Loading
Personal Weather Stations






























Interactive Weather Map New forecast layout! Learn more

10-Day Weather Forecast

Advertisements
Track Severe Weather on mobile